Time;durP1;ratioP1;P1;durP2;ratioP2;P2;SDS_P1;SDS_P2;PMS_P1;PMS_P2;Temp;Humidity;BMP_temperature;BMP_pressure;BME280_temperature;BME280_humidity;BME280_pressure;Samples;Min_cycle;Max_cycle;Signal;HPM_P1;HPM_P2
2024/03/19 00:02:13;;;;;;;7.43;2.60;;;8.00;99.90;;;8.91;100.00;98226.41;4995691;28;20476;-76
2024/03/19 00:04:41;;;;;;;4.73;2.83;;;8.00;99.90;;;8.89;100.00;98225.75;4997146;28;20493;-76
2024/03/19 00:07:08;;;;;;;2.40;2.20;;;7.90;99.90;;;8.78;100.00;98226.16;4998593;28;21428;-76
2024/03/19 00:09:37;;;;;;;9.10;2.40;;;7.90;99.90;;;8.70;100.00;98234.00;4994653;28;20476;-76
2024/03/19 00:12:05;;;;;;;3.30;2.40;;;7.80;99.90;;;8.74;100.00;98227.47;4998960;28;20478;-76
2024/03/19 00:14:32;;;;;;;6.27;2.50;;;7.90;99.90;;;8.78;100.00;98228.75;5009967;28;20473;-76
2024/03/19 00:17:00;;;;;;;2.53;1.90;;;7.90;99.90;;;8.71;100.00;98230.44;4999781;28;20484;-76
2024/03/19 00:19:27;;;;;;;5.50;2.90;;;7.80;99.90;;;8.69;100.00;98229.75;4994017;28;20504;-76
2024/03/19 00:21:55;;;;;;;4.30;2.30;;;7.80;99.90;;;8.53;100.00;98238.47;4998848;28;20473;-76
2024/03/19 00:24:24;;;;;;;3.90;2.50;;;7.60;99.90;;;8.50;100.00;98236.22;4994967;28;20471;-76
2024/03/19 00:26:53;;;;;;;6.97;2.73;;;7.60;99.90;;;8.61;100.00;98237.63;5001309;28;20680;-76
2024/03/19 00:29:20;;;;;;;3.43;2.13;;;7.70;99.90;;;8.59;100.00;98241.22;5007818;28;21010;-76
2024/03/19 00:31:49;;;;;;;3.07;2.20;;;7.70;99.90;;;8.56;100.00;98240.75;4997404;28;21871;-76
2024/03/19 00:34:17;;;;;;;4.63;2.20;;;7.60;99.90;;;8.57;100.00;98232.75;4997024;28;20561;-76
2024/03/19 00:36:44;;;;;;;2.80;1.93;;;7.70;99.90;;;8.61;100.00;98235.03;4998252;28;20480;-76
2024/03/19 00:39:12;;;;;;;4.73;2.57;;;7.70;99.90;;;8.59;100.00;98236.00;4997949;28;20465;-76
2024/03/19 00:41:41;;;;;;;2.37;2.03;;;7.80;99.90;;;8.56;100.00;98225.94;4995991;28;20497;-76
2024/03/19 00:44:10;;;;;;;3.27;2.33;;;7.70;99.90;;;8.58;100.00;98229.16;5001585;28;20886;-76
2024/03/19 00:46:37;;;;;;;3.20;2.20;;;7.70;99.90;;;8.56;100.00;98225.94;4999155;28;21066;-76
2024/03/19 00:49:05;;;;;;;3.60;2.87;;;7.70;99.90;;;8.56;100.00;98220.72;4997810;28;21589;-76
2024/03/19 00:51:33;;;;;;;4.97;2.70;;;7.60;99.90;;;8.55;100.00;98221.69;5012652;28;20968;-76
2024/03/19 00:54:00;;;;;;;5.50;2.57;;;7.60;99.90;;;8.63;100.00;98222.63;4997426;28;20488;-76
2024/03/19 00:56:27;;;;;;;4.03;2.60;;;7.70;99.90;;;8.58;100.00;98216.13;4997908;28;20485;-76
2024/03/19 00:58:55;;;;;;;8.47;2.53;;;7.70;99.90;;;8.61;100.00;98222.78;4999289;28;20476;-76
2024/03/19 01:01:26;;;;;;;4.90;2.17;;;7.80;99.90;;;8.63;100.00;98213.03;4992303;28;20502;-76
2024/03/19 01:03:53;;;;;;;2.60;2.03;;;7.80;99.90;;;8.63;100.00;98209.59;4999538;28;20476;-76
2024/03/19 01:06:20;;;;;;;4.63;3.37;;;7.80;99.90;;;8.65;100.00;98212.84;4994040;28;20473;-76
2024/03/19 01:08:48;;;;;;;3.97;2.53;;;7.80;99.90;;;8.65;100.00;98207.63;4997454;28;20477;-76
2024/03/19 01:11:15;;;;;;;2.70;2.40;;;7.80;99.90;;;8.65;100.00;98207.63;4992090;28;20461;-76
2024/03/19 01:13:43;;;;;;;3.10;2.30;;;7.80;99.90;;;8.55;100.00;98206.06;4995992;28;20530;-76
2024/03/19 01:16:11;;;;;;;4.00;2.77;;;7.80;99.90;;;8.53;100.00;98204.59;4998068;28;20455;-76
2024/03/19 01:18:40;;;;;;;4.63;2.50;;;7.80;99.90;;;8.49;100.00;98206.72;4994008;28;20469;-76
2024/03/19 01:21:07;;;;;;;8.20;2.30;;;7.70;99.90;;;8.52;100.00;98205.56;5002602;28;20497;-76
2024/03/19 01:23:35;;;;;;;4.23;2.57;;;7.70;99.90;;;8.55;100.00;98200.03;5000954;28;20462;-76
2024/03/19 01:26:03;;;;;;;7.93;2.40;;;7.70;99.90;;;8.50;100.00;98189.31;5001670;28;20827;-76
2024/03/19 01:28:30;;;;;;;3.97;2.20;;;7.70;99.90;;;8.41;100.00;98195.53;5001527;28;20465;-76
2024/03/19 01:30:58;;;;;;;3.27;2.40;;;7.60;99.90;;;8.45;100.00;98189.81;5014670;28;20923;-76
2024/03/19 01:33:25;;;;;;;5.00;2.60;;;7.60;99.90;;;8.40;100.00;98199.13;5017588;28;20466;-77
2024/03/19 01:35:54;;;;;;;2.20;1.90;;;7.60;99.90;;;8.40;100.00;98186.09;5000491;28;20461;-76
2024/03/19 01:38:24;;;;;;;4.00;2.27;;;7.60;99.90;;;8.39;100.00;98182.69;5005818;28;20476;-75
2024/03/19 01:40:51;;;;;;;3.53;2.40;;;7.60;99.90;;;8.35;100.00;98181.41;5003821;28;21245;-76
2024/03/19 01:43:20;;;;;;;4.43;1.80;;;7.50;99.90;;;8.20;100.00;98175.22;5006528;28;20899;-76
2024/03/19 01:46:26;;;;;;;2.07;1.83;;;7.30;99.90;;;8.15;100.00;98184.53;5008133;28;20468;-76
2024/03/19 01:48:55;;;;;;;4.40;2.23;;;7.30;99.90;;;8.05;100.00;98187.34;5003490;28;20457;-75
2024/03/19 01:51:26;;;;;;;3.47;2.23;;;7.20;99.90;;;8.08;100.00;98187.81;5004494;28;20984;-76
2024/03/19 01:53:56;;;;;;;3.30;2.30;;;7.20;99.90;;;8.12;100.00;98180.47;5006632;28;20491;-76
2024/03/19 01:56:24;;;;;;;2.87;2.00;;;7.20;99.90;;;7.99;100.00;98190.59;5004924;28;20460;-76
2024/03/19 01:58:53;;;;;;;2.27;2.03;;;7.10;99.90;;;7.97;100.00;98189.97;5007084;28;20532;-76
2024/03/19 02:01:21;;;;;;;3.20;2.47;;;7.10;99.90;;;7.96;100.00;98190.94;4999653;28;20503;-76
2024/03/19 02:03:50;;;;;;;4.90;2.60;;;7.10;99.90;;;7.87;100.00;98191.94;4994576;28;20489;-76
2024/03/19 02:06:18;;;;;;;3.07;2.40;;;6.80;99.90;;;7.85;100.00;98193.88;4998310;28;20462;-77
2024/03/19 02:09:05;;;;;;;6.20;2.40;;;6.90;99.90;;;7.79;100.00;98190.16;4995448;28;20474;-76
2024/03/19 02:11:34;;;;;;;2.83;1.90;;;7.00;99.90;;;7.80;100.00;98191.78;4997377;28;20468;-76
2024/03/19 02:14:04;;;;;;;2.93;2.10;;;6.90;99.90;;;7.83;100.00;98203.66;5002977;28;20834;-76
2024/03/19 02:16:34;;;;;;;4.07;2.60;;;6.90;99.90;;;7.80;100.00;98196.19;5002867;28;20452;-77
2024/03/19 02:19:04;;;;;;;3.23;2.00;;;6.90;99.90;;;7.75;100.00;98198.44;5013061;28;20467;-76
2024/03/19 02:21:34;;;;;;;2.80;2.00;;;6.90;99.90;;;7.72;100.00;98198.78;5000710;28;20752;-76
2024/03/19 02:24:04;;;;;;;11.17;2.87;;;6.80;99.90;;;7.71;100.00;98197.97;5002372;28;20464;-76
2024/03/19 02:26:32;;;;;;;10.47;2.10;;;6.80;99.90;;;7.70;100.00;98195.53;5003269;28;20471;-76
2024/03/19 02:29:02;;;;;;;3.80;2.07;;;6.80;99.90;;;7.63;100.00;98194.59;4998998;28;20951;-76
2024/03/19 02:31:30;;;;;;;2.57;2.03;;;6.70;99.90;;;7.67;100.00;98195.88;5002373;28;20480;-76
2024/03/19 02:33:57;;;;;;;4.27;2.03;;;6.70;99.90;;;7.67;100.00;98196.66;4999066;28;20464;-76
2024/03/19 02:36:26;;;;;;;5.23;2.40;;;6.70;99.90;;;7.64;100.00;98201.38;5002117;28;20464;-76
2024/03/19 02:38:53;;;;;;;2.93;1.90;;;6.70;99.90;;;7.55;100.00;98198.00;5000878;28;20470;-76
2024/03/19 02:41:22;;;;;;;2.40;1.70;;;6.60;99.90;;;7.53;100.00;98205.94;4999790;28;20494;-76
2024/03/19 02:43:49;;;;;;;5.93;2.17;;;6.60;99.90;;;7.58;100.00;98205.47;5000233;28;20480;-76
2024/03/19 02:46:17;;;;;;;6.47;2.10;;;6.70;99.90;;;7.61;100.00;98202.53;4999884;28;20478;-76
2024/03/19 02:48:44;;;;;;;3.10;2.20;;;6.70;99.90;;;7.66;100.00;98204.66;5000225;28;20964;-76
2024/03/19 02:51:12;;;;;;;7.20;1.90;;;6.80;99.90;;;7.69;100.00;98199.94;4997283;28;20472;-76
2024/03/19 02:53:39;;;;;;;3.07;2.23;;;6.80;99.90;;;7.73;100.00;98198.63;4998463;28;20501;-76
2024/03/19 02:56:07;;;;;;;3.40;2.30;;;6.90;99.90;;;7.76;100.00;98202.69;5000264;28;20494;-76
2024/03/19 02:58:36;;;;;;;2.07;1.83;;;6.90;99.90;;;7.76;100.00;98200.91;4996596;28;20959;-76
2024/03/19 03:01:04;;;;;;;10.83;2.40;;;6.90;99.90;;;7.78;100.00;98198.13;4992693;28;20733;-76
2024/03/19 03:03:31;;;;;;;5.47;1.87;;;6.90;99.90;;;7.81;100.00;98197.81;4999282;28;20468;-76
2024/03/19 03:05:59;;;;;;;4.00;2.07;;;7.00;99.90;;;7.81;100.00;98197.81;5000066;28;20474;-76
2024/03/19 03:08:27;;;;;;;3.13;2.10;;;7.10;99.90;;;7.81;100.00;98198.59;4993472;28;20476;-75
2024/03/19 03:10:54;;;;;;;3.17;2.00;;;7.10;99.90;;;7.81;100.00;98188.19;4995378;28;20548;-76
2024/03/19 03:13:22;;;;;;;3.33;2.00;;;7.10;99.90;;;7.80;100.00;98190.97;4994929;28;20804;-76
2024/03/19 03:15:51;;;;;;;4.77;2.10;;;7.00;99.90;;;7.81;100.00;98182.97;5001537;28;20475;-76
2024/03/19 03:18:19;;;;;;;2.00;1.70;;;7.00;99.90;;;7.84;100.00;98181.84;4999725;28;21020;-76
2024/03/19 03:20:47;;;;;;;2.07;1.80;;;7.00;99.90;;;7.82;100.00;98184.63;5013757;28;20490;-75
2024/03/19 03:23:15;;;;;;;4.57;2.10;;;7.00;99.90;;;7.70;100.00;98185.13;5000294;28;20466;-76
2024/03/19 03:25:42;;;;;;;5.43;2.10;;;6.90;99.90;;;7.63;100.00;98191.97;5000733;28;20470;-76
2024/03/19 03:28:10;;;;;;;4.50;2.40;;;6.80;99.90;;;7.65;100.00;98192.63;5013384;28;20981;-76
2024/03/19 03:30:38;;;;;;;3.70;2.40;;;6.90;99.90;;;7.66;100.00;98189.84;5014357;28;21106;-76
2024/03/19 03:33:07;;;;;;;3.73;2.30;;;6.90;99.90;;;7.69;100.00;98189.53;5001074;28;20472;-76
2024/03/19 03:35:34;;;;;;;2.50;2.03;;;7.00;99.90;;;7.76;100.00;98189.69;5016868;28;20465;-76
2024/03/19 03:38:01;;;;;;;3.67;2.00;;;6.90;99.90;;;7.79;100.00;98184.13;4995706;28;20753;-76
2024/03/19 03:40:29;;;;;;;2.40;1.90;;;7.00;99.90;;;7.80;100.00;98196.19;4997874;28;21022;-76
2024/03/19 03:42:57;;;;;;;2.70;2.10;;;6.90;99.90;;;7.82;100.00;98191.59;5001702;28;20733;-76
2024/03/19 03:45:24;;;;;;;4.90;2.23;;;7.00;99.90;;;7.81;100.00;98187.41;5012174;28;20485;-76
2024/03/19 03:47:52;;;;;;;4.43;2.17;;;7.00;99.90;;;7.72;100.00;98190.97;5004893;28;20993;-76
2024/03/19 03:50:19;;;;;;;2.90;2.17;;;7.00;99.90;;;7.68;100.00;98193.09;5005291;28;20472;-76
2024/03/19 03:52:47;;;;;;;4.23;1.80;;;6.90;99.90;;;7.69;100.00;98179.13;5002367;28;20501;-76
2024/03/19 03:55:15;;;;;;;1.77;1.50;;;6.80;99.90;;;7.73;100.00;98177.00;5000012;28;20473;-76
2024/03/19 03:57:42;;;;;;;3.90;2.50;;;6.90;99.90;;;7.73;100.00;98174.41;5019786;28;20479;-76
2024/03/19 04:00:11;;;;;;;2.67;1.93;;;6.80;99.90;;;7.71;100.00;98182.34;5003262;28;20905;-76
2024/03/19 04:02:41;;;;;;;4.10;2.30;;;6.80;99.90;;;7.67;100.00;98180.28;5015353;28;20466;-77
2024/03/19 04:05:09;;;;;;;4.37;1.90;;;6.90;99.90;;;7.66;100.00;98183.84;5001128;28;20482;-76
2024/03/19 04:07:41;;;;;;;2.53;2.13;;;6.80;99.90;;;7.64;100.00;98183.16;4998415;28;20457;-75
2024/03/19 04:10:10;;;;;;;2.50;1.73;;;6.80;99.90;;;7.66;100.00;98178.63;5002061;28;20469;-76
2024/03/19 04:12:38;;;;;;;5.17;1.93;;;6.80;99.90;;;7.57;100.00;98186.44;4999285;28;20470;-80
2024/03/19 04:15:08;;;;;;;4.47;2.47;;;6.70;99.90;;;7.65;100.00;98192.63;4997276;28;20474;-76
2024/03/19 04:17:35;;;;;;;3.23;1.90;;;6.80;99.90;;;7.70;100.00;98192.94;4998191;28;20487;-76
2024/03/19 04:20:05;;;;;;;3.70;2.47;;;6.80;99.90;;;7.70;100.00;98191.16;5000823;28;20474;-76
2024/03/19 04:22:35;;;;;;;2.77;1.60;;;6.90;99.90;;;7.68;100.00;98198.31;4999857;28;20501;-76
2024/03/19 04:25:04;;;;;;;3.50;2.03;;;6.90;99.90;;;7.73;100.00;98198.63;4995500;28;20464;-77
2024/03/19 04:27:32;;;;;;;5.30;1.87;;;6.90;99.90;;;7.75;100.00;98203.66;4996583;28;20890;-77
2024/03/19 04:30:00;;;;;;;4.53;2.20;;;6.90;99.90;;;7.76;100.00;98200.91;5000589;28;20478;-76
2024/03/19 04:32:27;;;;;;;5.87;2.20;;;6.90;99.90;;;7.80;100.00;98201.38;5002356;28;20533;-76
2024/03/19 04:34:55;;;;;;;3.00;2.30;;;7.00;99.90;;;7.81;100.00;98201.19;4997946;28;20546;-77
2024/03/19 04:37:22;;;;;;;6.20;2.07;;;7.00;99.90;;;7.79;100.00;98208.38;5001261;28;20474;-77
2024/03/19 04:39:50;;;;;;;4.77;2.10;;;7.00;99.90;;;7.79;100.00;98205.78;5005515;28;20473;-77
2024/03/19 04:42:20;;;;;;;3.70;1.67;;;7.00;99.90;;;7.81;100.00;98208.22;5017942;28;20491;-76
2024/03/19 04:44:48;;;;;;;1.80;1.70;;;7.00;99.90;;;7.82;100.00;98207.22;5005186;28;20760;-77
2024/03/19 04:47:17;;;;;;;5.27;2.03;;;6.90;99.90;;;7.80;100.00;98210.00;5003903;28;20466;-77
2024/03/19 04:49:44;;;;;;;4.30;2.40;;;7.00;99.90;;;7.78;100.00;98203.31;5000095;28;20480;-77
2024/03/19 04:52:12;;;;;;;4.10;2.03;;;6.90;99.90;;;7.78;100.00;98204.13;5001387;28;21295;-77
2024/03/19 04:54:40;;;;;;;8.30;4.33;;;7.00;99.90;;;7.81;100.00;98201.19;5015273;28;22384;-82
2024/03/19 04:57:09;;;;;;;7.23;3.20;;;7.00;99.90;;;7.84;100.00;98205.28;5001124;28;20514;-77
2024/03/19 04:59:38;;;;;;;7.20;2.20;;;7.00;99.90;;;7.81;100.00;98198.59;5015293;28;20465;-77
2024/03/19 05:02:06;;;;;;;2.10;1.73;;;7.00;99.90;;;7.79;100.00;98202.34;5003342;28;20845;-78
2024/03/19 05:04:33;;;;;;;3.00;2.10;;;7.00;99.90;;;7.81;100.00;98197.81;5014440;28;20532;-77
2024/03/19 05:07:01;;;;;;;2.70;2.20;;;7.00;99.90;;;7.82;100.00;98189.81;5001375;28;20994;-77
2024/03/19 05:09:29;;;;;;;5.80;2.50;;;7.00;99.90;;;7.81;100.00;98192.59;5002016;28;20808;-77
2024/03/19 05:11:56;;;;;;;14.30;2.47;;;7.00;99.90;;;7.76;100.00;98189.69;5004406;28;20472;-77
2024/03/19 05:14:24;;;;;;;7.80;2.90;;;7.00;99.90;;;7.76;100.00;98197.47;4996150;28;20506;-77
2024/03/19 05:16:53;;;;;;;3.67;2.60;;;7.00;99.90;;;7.77;100.00;98199.13;4996859;28;20472;-77
2024/03/19 05:19:20;;;;;;;6.00;2.10;;;7.00;99.90;;;7.80;100.00;98201.38;5002240;28;20473;-77
2024/03/19 05:21:47;;;;;;;3.10;2.00;;;7.00;99.90;;;7.79;100.00;98204.97;4999860;28;20496;-77
2024/03/19 05:24:15;;;;;;;2.67;2.10;;;7.00;99.90;;;7.81;100.00;98206.41;5012154;28;20850;-77
2024/03/19 05:26:43;;;;;;;2.40;2.10;;;7.00;99.90;;;7.84;100.00;98210.50;4993763;28;20486;-77
2024/03/19 05:29:10;;;;;;;6.90;2.10;;;7.00;99.90;;;7.87;100.00;98197.97;4997304;28;20476;-77
2024/03/19 05:31:38;;;;;;;6.43;2.40;;;7.00;99.90;;;7.89;100.00;98206.41;5012816;28;20833;-77
2024/03/19 05:34:07;;;;;;;5.70;2.00;;;7.00;99.90;;;7.85;100.00;98199.09;4998281;28;20467;-77
2024/03/19 05:36:35;;;;;;;3.67;2.17;;;7.00;99.90;;;7.87;100.00;98210.97;4997397;28;20864;-77
2024/03/19 05:39:08;;;;;;;12.83;2.23;;;7.00;99.90;;;7.89;100.00;98201.19;4998944;28;20479;-76
2024/03/19 05:41:36;;;;;;;4.73;2.10;;;7.00;99.90;;;7.86;100.00;98211.94;5002442;28;21059;-77
2024/03/19 05:44:05;;;;;;;3.83;1.83;;;7.00;99.90;;;7.81;100.00;98210.81;5005353;28;20479;-77
2024/03/19 05:46:32;;;;;;;4.20;2.07;;;6.90;99.90;;;7.75;100.00;98219.28;5003234;28;21252;-77
2024/03/19 05:49:00;;;;;;;2.10;1.90;;;6.80;99.90;;;7.74;100.00;98217.66;4999228;28;20472;-77
2024/03/19 05:51:30;;;;;;;2.30;2.10;;;6.90;99.90;;;7.79;100.00;98225.78;5005175;28;20493;-77
2024/03/19 05:53:58;;;;;;;4.23;1.87;;;6.90;99.90;;;7.77;100.00;98219.94;5002895;28;20991;-77
2024/03/19 05:56:26;;;;;;;4.40;2.53;;;6.90;99.90;;;7.84;100.00;98228.72;5003935;28;21250;-77
2024/03/19 05:58:53;;;;;;;4.47;2.10;;;7.00;99.90;;;7.88;100.00;98217.00;5000389;28;20451;-77
2024/03/19 06:01:21;;;;;;;2.33;1.90;;;7.00;99.90;;;7.91;100.00;98229.69;4998082;28;20499;-77
2024/03/19 06:03:49;;;;;;;5.00;2.13;;;7.00;99.90;;;7.88;100.00;98230.03;5004268;28;20476;-77
2024/03/19 06:06:18;;;;;;;3.60;2.30;;;7.00;99.90;;;7.83;100.00;98233.09;4999570;28;20464;-77
2024/03/19 06:08:47;;;;;;;2.93;2.33;;;6.90;99.90;;;7.81;100.00;98223.84;4999790;28;20475;-76
2024/03/19 06:11:15;;;;;;;2.50;2.23;;;6.90;99.90;;;7.82;100.00;98225.44;5003123;28;20463;-77
2024/03/19 06:13:43;;;;;;;11.23;2.13;;;6.90;99.90;;;7.85;100.00;98225.94;5004418;28;20510;-77
2024/03/19 06:16:10;;;;;;;3.90;2.63;;;7.00;99.90;;;7.90;100.00;98228.88;5003458;28;20472;-77
2024/03/19 06:18:38;;;;;;;3.80;2.60;;;7.00;99.90;;;7.90;100.00;98231.47;5000620;28;21052;-77
2024/03/19 06:21:06;;;;;;;5.03;3.03;;;7.00;99.90;;;7.90;100.00;98238.47;4998854;28;20477;-77
2024/03/19 06:23:33;;;;;;;6.73;2.30;;;7.10;99.90;;;7.89;100.00;98239.44;5017529;28;20519;-77
2024/03/19 06:26:03;;;;;;;2.80;2.50;;;7.00;99.90;;;7.96;100.00;98240.41;5007140;28;20893;-77
2024/03/19 06:28:30;;;;;;;6.97;2.93;;;7.10;99.90;;;7.97;100.00;98244.63;5006744;28;20467;-78
2024/03/19 06:30:58;;;;;;;8.73;3.50;;;7.10;99.90;;;7.99;100.00;98238.28;5007389;28;20471;-77
2024/03/19 06:33:26;;;;;;;2.30;2.10;;;7.10;99.90;;;8.01;100.00;98246.75;5005195;28;20484;-77
2024/03/19 06:35:55;;;;;;;7.90;2.37;;;7.10;99.90;;;8.07;100.00;98245.25;5008256;28;20971;-78
2024/03/19 06:38:22;;;;;;;3.47;2.40;;;7.20;99.90;;;8.09;100.00;98246.72;5020180;28;20533;-77
2024/03/19 06:40:50;;;;;;;2.73;2.20;;;7.20;99.90;;;8.09;100.00;98249.31;5006239;28;20487;-77
2024/03/19 06:43:19;;;;;;;3.37;2.60;;;7.20;99.90;;;8.04;100.00;98243.00;5008285;28;20496;-78
2024/03/19 06:45:48;;;;;;;7.20;2.47;;;7.20;99.90;;;8.05;100.00;98245.41;5009347;28;20971;-76
2024/03/19 06:48:15;;;;;;;11.37;2.77;;;7.20;99.90;;;8.12;100.00;98253.41;5023492;28;20486;-77
2024/03/19 06:50:43;;;;;;;2.30;2.10;;;7.30;99.90;;;8.19;100.00;98249.13;5005848;28;20470;-77
2024/03/19 06:53:11;;;;;;;5.50;2.50;;;7.30;99.90;;;8.25;100.00;98250.28;5007881;28;21059;-76
2024/03/19 06:55:39;;;;;;;4.27;2.20;;;7.40;99.90;;;8.27;100.00;98251.72;5022691;28;20466;-77
2024/03/19 06:58:06;;;;;;;3.60;2.40;;;7.40;99.90;;;8.28;100.00;98258.59;5006269;28;20472;-76
2024/03/19 07:00:36;;;;;;;4.17;2.60;;;7.40;99.90;;;8.33;100.00;98258.88;5021001;28;20468;-77
2024/03/19 07:03:05;;;;;;;3.60;2.33;;;7.50;99.90;;;8.35;100.00;98256.94;5002114;28;20501;-77
2024/03/19 07:05:33;;;;;;;3.50;2.60;;;7.40;99.90;;;8.38;100.00;98247.97;5001327;28;20483;-77
2024/03/19 07:08:00;;;;;;;2.60;2.20;;;7.40;99.90;;;8.33;100.00;98258.09;5005509;28;20480;-77
2024/03/19 07:10:28;;;;;;;3.30;2.20;;;7.40;99.90;;;8.33;100.00;98264.09;5002977;28;20460;-77
2024/03/19 07:12:55;;;;;;;4.70;2.67;;;7.40;99.90;;;8.40;100.00;98267.66;5006876;28;20840;-77
2024/03/19 07:15:23;;;;;;;5.80;2.93;;;7.50;99.90;;;8.44;100.00;98266.34;5003253;28;20455;-77
2024/03/19 07:17:52;;;;;;;5.50;2.73;;;7.50;99.90;;;8.48;100.00;98264.22;5002170;28;20453;-77
2024/03/19 07:20:20;;;;;;;4.07;2.20;;;7.60;99.90;;;8.50;100.00;98263.06;5019234;28;20547;-77
2024/03/19 07:22:49;;;;;;;4.50;3.30;;;7.70;99.90;;;8.54;100.00;98261.75;5017762;28;20508;-77
2024/03/19 07:25:19;;;;;;;4.70;3.20;;;7.60;99.90;;;8.56;100.00;98262.41;5017733;28;20465;-77
2024/03/19 07:27:48;;;;;;;2.77;2.03;;;7.70;99.90;;;8.62;100.00;98267.91;5002919;28;20500;-77
2024/03/19 07:30:17;;;;;;;4.17;2.47;;;7.70;99.90;;;8.69;100.00;98272.28;5006737;28;20531;-78
2024/03/19 07:32:45;;;;;;;3.40;2.70;;;7.80;99.90;;;8.73;100.00;98270.16;5007161;28;21313;-78
2024/03/19 07:35:14;;;;;;;5.60;2.63;;;7.90;99.90;;;8.77;100.00;98271.44;5004855;28;20466;-77
2024/03/19 07:37:42;;;;;;;8.93;2.60;;;7.90;99.90;;;8.79;100.00;98266.88;5006608;28;20568;-77
2024/03/19 07:40:13;;;;;;;4.20;2.30;;;7.90;99.90;;;8.82;100.00;98267.34;5005798;28;20466;-77
2024/03/19 07:42:41;;;;;;;7.87;2.33;;;7.90;99.90;;;8.83;100.00;98275.97;5006644;28;20506;-78
2024/03/19 07:45:10;;;;;;;7.53;2.50;;;8.00;99.90;;;8.89;100.00;98273.50;5004649;28;20485;-77
2024/03/19 07:47:40;;;;;;;2.57;2.23;;;8.00;99.90;;;8.95;100.00;98272.03;5005656;28;20540;-77
2024/03/19 07:50:10;;;;;;;13.00;3.27;;;8.10;99.90;;;9.05;100.00;98273.44;5024395;28;20475;-78
2024/03/19 07:52:39;;;;;;;7.10;2.67;;;8.20;99.90;;;9.15;100.00;98278.41;5018726;28;20467;-77
2024/03/19 07:55:07;;;;;;;6.77;2.30;;;8.30;99.90;;;9.26;100.00;98277.22;5008367;28;20470;-77
2024/03/19 07:57:35;;;;;;;4.60;2.30;;;8.40;99.90;;;9.33;100.00;98271.13;5005687;28;20461;-77
2024/03/19 08:00:09;;;;;;;3.77;2.83;;;8.60;99.90;;;9.44;100.00;98268.09;5000306;28;20450;-78
2024/03/19 08:02:39;;;;;;;3.80;2.60;;;8.70;99.90;;;9.56;100.00;98277.16;5004708;28;20504;-78
2024/03/19 08:05:08;;;;;;;4.87;2.77;;;8.80;99.90;;;9.66;100.00;98276.09;5003069;28;20473;-77
2024/03/19 08:07:39;;;;;;;5.10;2.60;;;8.90;99.90;;;9.76;100.00;98277.50;5006616;28;20471;-77
2024/03/19 08:10:09;;;;;;;6.20;2.47;;;9.10;99.90;;;9.86;100.00;98266.78;5002055;28;20799;-77
2024/03/19 08:12:37;;;;;;;9.27;3.00;;;9.20;99.90;;;9.97;100.00;98275.03;5018390;28;20474;-77
2024/03/19 08:15:06;;;;;;;4.10;2.40;;;9.30;99.90;;;10.08;100.00;98276.38;5017126;28;20469;-77
2024/03/19 08:17:34;;;;;;;4.10;2.73;;;9.40;99.90;;;10.17;100.00;98270.13;5003558;28;20482;-76
2024/03/19 08:20:06;;;;;;;6.90;2.60;;;9.50;99.90;;;10.25;100.00;98275.28;5003599;28;20466;-77
2024/03/19 08:22:34;;;;;;;4.00;2.57;;;9.70;99.90;;;10.35;100.00;98282.84;5006095;28;20502;-77
2024/03/19 08:25:05;;;;;;;4.87;2.63;;;9.70;99.90;;;10.45;100.00;98284.19;5003872;28;20468;-78
2024/03/19 08:27:33;;;;;;;5.13;2.97;;;9.90;99.90;;;10.55;100.00;98283.94;5003761;28;20478;-77
2024/03/19 08:30:01;;;;;;;6.33;2.73;;;10.00;99.90;;;10.65;100.00;98284.47;4999729;28;20477;-77
2024/03/19 08:32:29;;;;;;;5.43;2.80;;;10.10;99.90;;;10.74;100.00;98293.03;5018168;28;20495;-77
2024/03/19 08:34:57;;;;;;;6.30;3.00;;;10.20;99.90;;;10.84;100.00;98296.16;5001667;28;20477;-77
2024/03/19 08:37:26;;;;;;;4.47;2.77;;;10.30;99.90;;;10.92;100.00;98293.47;5004183;28;20554;-77
2024/03/19 08:39:54;;;;;;;4.77;2.40;;;10.40;99.90;;;10.98;100.00;98292.72;5001708;28;20463;-78
2024/03/19 08:42:23;;;;;;;7.63;3.53;;;10.40;99.90;;;11.07;100.00;98294.25;5004023;28;21019;-77
2024/03/19 08:44:52;;;;;;;3.80;2.40;;;10.50;99.90;;;11.15;100.00;98301.16;5006035;28;20970;-78
2024/03/19 08:47:19;;;;;;;4.27;2.30;;;10.60;99.90;;;11.24;100.00;98306.13;5002835;28;20468;-77
2024/03/19 08:49:47;;;;;;;4.53;2.53;;;10.70;99.90;;;11.32;100.00;98298.16;5005343;28;20511;-78
2024/03/19 08:52:15;;;;;;;4.47;2.40;;;10.70;99.90;;;11.37;100.00;98306.28;5003124;28;20569;-78
2024/03/19 08:54:42;;;;;;;8.67;2.83;;;10.80;99.90;;;11.43;100.00;98300.28;5001505;28;20887;-77
2024/03/19 08:57:11;;;;;;;5.27;2.83;;;10.90;99.90;;;11.50;100.00;98298.53;5005305;28;20496;-77
2024/03/19 08:59:40;;;;;;;3.20;2.40;;;10.90;99.90;;;11.57;100.00;98302.03;5001759;28;20475;-77
2024/03/19 09:02:08;;;;;;;5.17;2.67;;;11.00;99.90;;;11.60;100.00;98301.66;5002958;28;20459;-78
2024/03/19 09:04:36;;;;;;;5.40;3.30;;;11.10;99.90;;;11.66;100.00;98310.59;5004278;28;20475;-77
2024/03/19 09:07:04;;;;;;;7.33;2.50;;;11.10;99.90;;;11.69;100.00;98307.59;5019838;28;20477;-77
2024/03/19 09:09:32;;;;;;;5.50;2.40;;;11.10;99.90;;;11.73;100.00;98310.69;5004537;28;20508;-78
2024/03/19 09:12:00;;;;;;;5.07;2.50;;;11.20;99.90;;;11.77;100.00;98310.09;5005247;28;20480;-78
2024/03/19 09:14:27;;;;;;;2.50;2.23;;;11.20;99.90;;;11.84;100.00;98312.78;5003395;28;20531;-78
2024/03/19 09:16:56;;;;;;;5.30;2.03;;;11.30;99.90;;;11.88;100.00;98319.28;5004483;28;20603;-77
2024/03/19 09:19:26;;;;;;;3.70;2.80;;;11.40;99.90;;;11.94;100.00;98313.31;5017266;28;20469;-78
2024/03/19 09:21:54;;;;;;;6.00;2.27;;;11.40;99.90;;;11.98;100.00;98314.50;5003682;28;20531;-78
2024/03/19 09:24:22;;;;;;;4.03;2.57;;;11.40;99.90;;;12.01;100.00;98308.91;5019540;28;20498;-77
2024/03/19 09:26:49;;;;;;;4.00;2.50;;;11.50;99.90;;;12.07;100.00;98314.22;5006177;28;20516;-77
2024/03/19 09:29:17;;;;;;;6.07;2.70;;;11.60;99.90;;;12.11;100.00;98304.94;5006955;28;20553;-77
2024/03/19 09:31:44;;;;;;;4.83;2.50;;;11.60;99.90;;;12.18;100.00;98317.31;5001820;28;20469;-77
2024/03/19 09:34:13;;;;;;;6.07;2.80;;;11.70;99.90;;;12.25;100.00;98313.72;5003428;28;20475;-77
2024/03/19 09:36:41;;;;;;;3.13;2.30;;;11.70;99.90;;;12.28;100.00;98316.00;5004813;28;20546;-78
2024/03/19 09:39:10;;;;;;;3.40;2.30;;;11.70;99.90;;;12.33;100.00;98324.06;5003436;28;20498;-77
2024/03/19 09:41:42;;;;;;;3.73;2.23;;;11.80;99.90;;;12.38;100.00;98318.25;5004787;28;20473;-77
2024/03/19 09:44:18;;;;;;;7.10;2.97;;;11.80;99.90;;;12.43;100.00;98321.09;5003942;28;20501;-77
2024/03/19 09:46:47;;;;;;;5.70;2.20;;;11.80;99.90;;;12.49;100.00;98317.75;5017328;28;20452;-78
2024/03/19 09:49:18;;;;;;;10.13;2.50;;;11.80;99.90;;;12.52;100.00;98320.78;4999431;28;20513;-77
2024/03/19 09:51:47;;;;;;;3.83;2.50;;;11.90;99.90;;;12.58;100.00;98321.81;5015970;28;20481;-77
2024/03/19 09:54:15;;;;;;;3.60;2.60;;;11.90;99.90;;;12.61;100.00;98321.44;5004552;28;20479;-77
2024/03/19 09:56:47;;;;;;;3.67;2.50;;;11.90;99.90;;;12.67;100.00;98322.50;5006254;28;20890;-77
2024/03/19 09:59:16;;;;;;;4.60;2.47;;;12.00;99.90;;;12.73;100.00;98321.72;5006125;28;20470;-77
2024/03/19 10:01:44;;;;;;;7.13;3.13;;;12.10;99.90;;;12.76;100.00;98324.75;5005842;28;20471;-77
2024/03/19 10:04:17;;;;;;;4.20;2.87;;;12.20;99.90;;;12.79;100.00;98319.13;5007239;28;20497;-78
2024/03/19 10:06:46;;;;;;;7.83;2.73;;;12.20;99.90;;;12.86;100.00;98317.34;5005686;28;20481;-78
2024/03/19 10:09:16;;;;;;;5.10;2.50;;;12.30;99.90;;;12.91;100.00;98317.53;5008610;28;20470;-77
2024/03/19 10:11:46;;;;;;;3.43;2.90;;;12.50;99.90;;;12.97;100.00;98321.22;5022872;28;20465;-77
2024/03/19 10:14:14;;;;;;;4.87;2.33;;;12.50;99.90;;;13.02;100.00;98326.69;5007063;28;20481;-83
2024/03/19 10:16:42;;;;;;;5.50;2.40;;;12.50;99.90;;;13.09;100.00;98320.50;5007812;28;20474;-78
2024/03/19 10:19:12;;;;;;;4.07;2.80;;;12.60;99.90;;;13.17;100.00;98319.50;5007176;28;20465;-78
2024/03/19 10:21:45;;;;;;;3.40;2.20;;;12.60;99.90;;;13.24;100.00;98322.97;5013692;28;20463;-78
2024/03/19 10:24:15;;;;;;;3.33;2.40;;;12.70;99.90;;;13.29;100.00;98320.59;5007651;28;20504;-78
2024/03/19 10:26:44;;;;;;;4.17;2.63;;;12.80;99.90;;;13.33;100.00;98315.75;5020460;28;20492;-78
2024/03/19 10:29:14;;;;;;;5.20;2.57;;;12.80;99.90;;;13.37;100.00;98307.25;5009750;28;20882;-77